Time;durP1;ratioP1;P1;durP2;ratioP2;P2;SDS_P1;SDS_P2;PMS_P1;PMS_P2;Temp;Humidity;BMP_temperature;BMP_pressure;BME280_temperature;BME280_humidity;BME280_pressure;Samples;Min_cycle;Max_cycle;Signal;HPM_P1;HPM_P2
2022/04/17 00:02:22;;;;;;;1.10;1.10;;;4.10;65.40;;;;;;612514;235;26642;-68
2022/04/17 00:04:47;;;;;;;1.20;1.20;;;4.10;65.70;;;;;;612347;235;26849;-67
2022/04/17 00:07:14;;;;;;;1.50;1.40;;;4.10;65.50;;;;;;612514;235;26624;-68
2022/04/17 00:09:42;;;;;;;1.33;1.30;;;4.10;66.50;;;;;;612459;235;26680;-67
2022/04/17 00:12:09;;;;;;;1.42;1.33;;;4.10;66.00;;;;;;612511;234;26620;-67
2022/04/17 00:14:37;;;;;;;1.20;1.20;;;4.10;65.50;;;;;;613406;232;26610;-67
2022/04/17 00:17:05;;;;;;;1.55;1.45;;;4.10;65.50;;;;;;613807;234;26856;-67
2022/04/17 00:19:32;;;;;;;1.58;1.48;;;4.10;65.40;;;;;;613507;233;26562;-67
2022/04/17 00:21:59;;;;;;;1.50;1.40;;;4.10;66.40;;;;;;613363;233;26808;-67
2022/04/17 00:24:27;;;;;;;1.10;1.10;;;4.10;66.70;;;;;;613134;234;26618;-67
2022/04/17 00:26:54;;;;;;;1.58;1.48;;;4.20;66.00;;;;;;613094;235;26642;-67
2022/04/17 00:29:22;;;;;;;1.50;1.40;;;4.20;65.60;;;;;;613080;234;26976;-68
2022/04/17 00:31:49;;;;;;;1.25;1.25;;;4.20;66.20;;;;;;613066;235;26628;-67
2022/04/17 00:34:19;;;;;;;1.48;1.37;;;4.10;66.30;;;;;;612818;235;26572;-68
2022/04/17 00:36:44;;;;;;;1.30;1.30;;;4.10;66.10;;;;;;612752;234;26816;-68
2022/04/17 00:39:12;;;;;;;1.33;1.33;;;4.10;66.40;;;;;;612785;234;26564;-68
2022/04/17 00:41:38;;;;;;;1.75;1.65;;;4.10;66.00;;;;;;612725;233;26556;-68
2022/04/17 00:44:10;;;;;;;1.37;1.27;;;4.00;67.30;;;;;;612757;234;26556;-67
2022/04/17 00:46:38;;;;;;;1.27;1.27;;;4.00;67.30;;;;;;612772;233;26814;-67
2022/04/17 00:49:05;;;;;;;1.50;1.40;;;4.00;68.40;;;;;;613122;233;26540;-68
2022/04/17 00:51:33;;;;;;;1.33;1.25;;;3.90;68.80;;;;;;612870;229;26612;-67
2022/04/17 00:54:00;;;;;;;1.25;1.25;;;3.90;68.80;;;;;;612794;233;26566;-68
2022/04/17 00:56:28;;;;;;;1.20;1.20;;;3.90;69.30;;;;;;612802;233;26653;-68
2022/04/17 00:58:55;;;;;;;1.35;1.35;;;4.00;67.70;;;;;;612846;233;26834;-68
2022/04/17 01:01:22;;;;;;;1.25;1.25;;;4.00;74.00;;;;;;612846;233;26536;-68
2022/04/17 01:03:50;;;;;;;1.55;1.45;;;4.00;73.30;;;;;;612853;233;26613;-67
2022/04/17 01:06:17;;;;;;;1.20;1.20;;;4.00;70.60;;;;;;612816;234;26841;-67
2022/04/17 01:08:44;;;;;;;1.20;1.20;;;3.90;70.60;;;;;;612792;235;26591;-67
2022/04/17 01:11:12;;;;;;;1.15;1.15;;;3.90;68.60;;;;;;612766;233;26544;-67
2022/04/17 01:13:41;;;;;;;1.42;1.33;;;3.90;69.10;;;;;;612495;234;26640;-67
2022/04/17 01:16:08;;;;;;;1.15;1.15;;;3.90;68.10;;;;;;612473;235;26600;-67
2022/04/17 01:18:48;;;;;;;1.40;1.30;;;4.00;68.00;;;;;;612606;235;26597;-67
2022/04/17 01:21:15;;;;;;;1.70;1.60;;;3.90;67.90;;;;;;612575;235;26536;-67
2022/04/17 01:28:48;;;;;;;1.30;1.20;;;3.90;68.20;;;;;;613749;234;26632;-67
2022/04/17 01:31:15;;;;;;;3.35;1.73;;;3.90;69.30;;;;;;613412;234;26807;-69
2022/04/17 01:33:42;;;;;;;2.33;1.33;;;3.90;70.20;;;;;;613359;234;26556;-73
2022/04/17 01:36:10;;;;;;;1.50;1.37;;;3.90;71.40;;;;;;613051;234;26849;-72
2022/04/17 01:38:38;;;;;;;4.37;1.30;;;3.90;73.10;;;;;;613043;234;26611;-72
2022/04/17 01:41:06;;;;;;;1.35;1.30;;;3.80;72.10;;;;;;613024;234;26604;-72
2022/04/17 01:43:33;;;;;;;1.40;1.30;;;3.80;72.00;;;;;;613046;233;26621;-72
2022/04/17 01:46:00;;;;;;;1.60;1.20;;;3.80;70.60;;;;;;612715;234;26567;-72
2022/04/17 01:48:28;;;;;;;3.50;1.10;;;3.80;69.50;;;;;;612780;233;27189;-67
2022/04/17 01:50:56;;;;;;;2.10;1.48;;;3.80;71.20;;;;;;612741;234;26610;-69
2022/04/17 01:53:23;;;;;;;19.42;2.17;;;3.80;70.30;;;;;;612749;233;26551;-67
2022/04/17 01:55:50;;;;;;;5.00;1.50;;;3.80;70.20;;;;;;612739;234;26809;-67
2022/04/17 01:58:18;;;;;;;7.00;2.10;;;3.70;70.00;;;;;;612817;233;26577;-67
2022/04/17 02:00:46;;;;;;;10.23;1.60;;;3.60;70.10;;;;;;612817;233;26603;-67
2022/04/17 02:03:14;;;;;;;5.85;1.95;;;3.60;70.80;;;;;;612496;233;26564;-66
2022/04/17 02:05:42;;;;;;;5.70;2.12;;;3.60;70.10;;;;;;612417;235;26843;-66
2022/04/17 02:08:09;;;;;;;3.47;1.70;;;3.50;70.40;;;;;;612475;235;26574;-66
2022/04/17 02:10:36;;;;;;;2.22;1.30;;;3.50;70.80;;;;;;612326;235;26786;-66
2022/04/17 02:13:04;;;;;;;4.82;1.30;;;3.40;72.70;;;;;;612347;235;26642;-66
2022/04/17 02:15:33;;;;;;;4.43;1.45;;;3.40;71.80;;;;;;612357;234;26563;-66
2022/04/17 02:18:00;;;;;;;3.78;1.37;;;3.40;71.80;;;;;;612392;235;26659;-66
2022/04/17 02:20:27;;;;;;;1.48;1.40;;;3.30;71.60;;;;;;612422;233;26797;-66
2022/04/17 02:22:54;;;;;;;1.30;1.20;;;3.30;71.70;;;;;;612442;233;26629;-67
2022/04/17 02:25:21;;;;;;;3.10;1.40;;;3.30;71.50;;;;;;612473;233;26821;-67
2022/04/17 02:27:48;;;;;;;1.17;1.10;;;3.30;72.50;;;;;;612440;233;26632;-67
2022/04/17 02:30:16;;;;;;;1.48;1.17;;;3.30;72.10;;;;;;612465;234;26552;-67
2022/04/17 02:32:44;;;;;;;2.67;1.42;;;3.20;72.10;;;;;;612461;233;26604;-67
2022/04/17 02:35:11;;;;;;;1.40;1.30;;;3.20;72.10;;;;;;612466;235;26629;-66
2022/04/17 02:37:38;;;;;;;3.45;1.48;;;3.20;72.40;;;;;;613300;232;26632;-66
2022/04/17 02:40:07;;;;;;;4.82;1.73;;;3.20;72.80;;;;;;613828;232;27015;-67
2022/04/17 02:42:33;;;;;;;1.60;1.50;;;3.20;72.70;;;;;;613833;232;26535;-67
2022/04/17 02:45:01;;;;;;;1.23;1.10;;;3.10;73.10;;;;;;613564;228;26556;-67
2022/04/17 02:50:01;;;;;;;1.23;1.23;;;3.10;73.30;;;;;;613064;233;26846;-67
2022/04/17 02:52:28;;;;;;;1.50;1.23;;;3.10;73.70;;;;;;613070;234;26619;-67
2022/04/17 02:54:56;;;;;;;1.92;1.20;;;3.10;73.70;;;;;;612946;234;26841;-67
2022/04/17 02:57:23;;;;;;;1.98;1.30;;;3.10;73.70;;;;;;612686;234;26588;-67
2022/04/17 02:59:50;;;;;;;1.62;1.10;;;3.10;73.70;;;;;;612743;234;26541;-67
2022/04/17 03:07:24;;;;;;;1.50;1.40;;;3.10;74.30;;;;;;612804;233;26588;-67
2022/04/17 03:09:52;;;;;;;1.98;1.27;;;3.00;74.30;;;;;;612762;235;26597;-67
2022/04/17 03:12:20;;;;;;;1.27;1.25;;;3.00;74.30;;;;;;612772;233;26820;-67
2022/04/17 03:14:48;;;;;;;2.25;1.20;;;3.00;74.70;;;;;;612438;235;26563;-67
2022/04/17 03:17:16;;;;;;;6.65;1.48;;;3.00;74.40;;;;;;612477;235;26634;-67
2022/04/17 03:19:44;;;;;;;1.73;1.20;;;2.90;74.30;;;;;;612396;235;26867;-67
2022/04/17 03:22:11;;;;;;;1.77;1.30;;;2.90;74.60;;;;;;612324;234;26640;-67
2022/04/17 03:24:38;;;;;;;1.27;1.17;;;3.00;74.50;;;;;;612449;234;27278;-67
2022/04/17 03:27:06;;;;;;;1.08;1.08;;;3.00;74.50;;;;;;612464;235;26636;-67
2022/04/17 03:29:34;;;;;;;1.35;1.25;;;3.00;74.60;;;;;;612459;235;26660;-66
2022/04/17 03:32:02;;;;;;;1.37;1.27;;;3.00;74.20;;;;;;612450;234;26552;-67
2022/04/17 03:34:29;;;;;;;1.20;1.20;;;3.00;74.10;;;;;;612350;235;26835;-67
2022/04/17 03:36:58;;;;;;;1.20;1.20;;;3.00;74.00;;;;;;612453;233;26628;-67
2022/04/17 03:39:24;;;;;;;2.33;1.10;;;3.00;73.90;;;;;;612372;235;26620;-66
2022/04/17 03:41:53;;;;;;;1.40;1.30;;;3.00;74.30;;;;;;612392;235;26636;-66
2022/04/17 03:44:19;;;;;;;1.40;1.30;;;3.00;74.30;;;;;;612428;233;26612;-67
2022/04/17 03:46:47;;;;;;;1.30;1.30;;;3.00;74.60;;;;;;612473;233;26637;-67
2022/04/17 03:49:14;;;;;;;3.87;1.40;;;3.00;74.70;;;;;;613237;232;26829;-66
2022/04/17 03:51:42;;;;;;;1.40;1.27;;;3.00;74.70;;;;;;613774;234;26847;-67
2022/04/17 03:54:10;;;;;;;1.10;1.10;;;3.00;74.90;;;;;;613398;232;26548;-67
2022/04/17 03:56:37;;;;;;;1.30;1.30;;;3.00;74.80;;;;;;613302;234;26804;-67
2022/04/17 03:59:04;;;;;;;1.05;1.05;;;3.00;74.70;;;;;;613128;234;26624;-67
2022/04/17 04:01:32;;;;;;;1.33;1.33;;;3.00;75.60;;;;;;603949;235;27201;-67
2022/04/17 04:03:59;;;;;;;1.30;1.20;;;3.00;75.60;;;;;;612977;234;26900;-67
2022/04/17 04:06:27;;;;;;;1.27;1.27;;;3.00;76.00;;;;;;612999;234;26639;-66
2022/04/17 04:08:55;;;;;;;1.20;1.10;;;3.00;76.10;;;;;;612767;233;26603;-67
2022/04/17 04:11:22;;;;;;;1.60;1.20;;;3.00;76.10;;;;;;612758;234;26582;-67
2022/04/17 04:13:49;;;;;;;1.15;1.15;;;3.00;76.00;;;;;;612849;233;26536;-66
2022/04/17 04:16:17;;;;;;;1.40;1.30;;;3.00;76.10;;;;;;612851;233;26831;-67
2022/04/17 04:18:44;;;;;;;1.30;1.00;;;3.00;76.20;;;;;;612839;233;26556;-67
2022/04/17 04:21:11;;;;;;;1.30;1.20;;;3.00;76.30;;;;;;612757;234;26577;-67
2022/04/17 04:23:40;;;;;;;1.27;1.27;;;3.10;76.80;;;;;;612777;233;26564;-67
2022/04/17 04:26:07;;;;;;;1.30;1.20;;;3.10;76.80;;;;;;612438;234;26594;-67
2022/04/17 04:28:36;;;;;;;1.62;1.10;;;3.10;76.90;;;;;;612348;234;26858;-67
2022/04/17 04:31:01;;;;;;;1.33;1.27;;;3.10;77.00;;;;;;612324;235;26612;-67
2022/04/17 04:33:31;;;;;;;1.23;1.12;;;3.20;77.00;;;;;;612786;235;27046;-67
2022/04/17 04:35:58;;;;;;;1.23;1.20;;;3.20;77.60;;;;;;612678;235;26568;-67
2022/04/17 04:38:24;;;;;;;1.00;1.00;;;3.30;77.70;;;;;;612522;234;26552;-67
2022/04/17 04:40:52;;;;;;;1.02;1.02;;;3.30;78.40;;;;;;612479;233;26568;-67
2022/04/17 04:43:20;;;;;;;1.20;1.20;;;3.30;77.80;;;;;;612484;235;26608;-67
2022/04/17 04:50:54;;;;;;;1.02;1.02;;;3.40;77.40;;;;;;612499;233;26572;-67
2022/04/17 04:53:22;;;;;;;1.35;1.35;;;3.60;77.70;;;;;;612510;235;26634;-66
2022/04/17 04:55:52;;;;;;;1.60;1.50;;;3.60;77.40;;;;;;612453;233;26847;-67
2022/04/17 04:58:16;;;;;;;1.10;1.10;;;3.70;77.30;;;;;;612328;235;26600;-66
2022/04/17 05:00:44;;;;;;;1.30;1.05;;;3.70;77.00;;;;;;613238;232;26990;-66
2022/04/17 05:03:12;;;;;;;1.10;1.10;;;3.80;77.00;;;;;;613726;234;26621;-66
2022/04/17 05:05:40;;;;;;;1.45;1.35;;;3.80;76.60;;;;;;613515;232;26575;-70
2022/04/17 05:08:07;;;;;;;1.23;1.17;;;3.80;76.60;;;;;;613439;232;26554;-70
2022/04/17 05:10:34;;;;;;;1.27;1.27;;;3.90;76.30;;;;;;613184;233;26555;-70
2022/04/17 05:13:02;;;;;;;1.55;1.40;;;4.00;76.20;;;;;;613064;234;26954;-70
2022/04/17 05:15:30;;;;;;;1.40;1.30;;;4.00;76.20;;;;;;613060;234;26577;-70
2022/04/17 05:17:56;;;;;;;1.30;1.30;;;4.00;75.70;;;;;;613038;233;26926;-71
2022/04/17 05:20:26;;;;;;;1.20;1.20;;;4.20;75.20;;;;;;612710;233;26536;-71
2022/04/17 05:22:56;;;;;;;2.15;1.40;;;4.20;74.80;;;;;;612627;234;26570;-70
2022/04/17 05:25:19;;;;;;;1.60;1.50;;;4.20;74.80;;;;;;612433;234;26528;-70
2022/04/17 05:27:46;;;;;;;1.60;1.50;;;4.20;74.00;;;;;;612727;233;26592;-71
2022/04/17 05:30:14;;;;;;;1.00;1.00;;;4.30;74.30;;;;;;612754;233;26786;-71
2022/04/17 05:32:41;;;;;;;1.33;1.33;;;4.30;74.20;;;;;;612752;233;26568;-71
2022/04/17 05:35:08;;;;;;;1.20;1.20;;;4.40;74.00;;;;;;612773;233;26792;-70
2022/04/17 05:37:35;;;;;;;1.20;1.20;;;4.40;74.30;;;;;;612475;233;26589;-70
2022/04/17 05:40:03;;;;;;;1.92;1.20;;;4.50;74.50;;;;;;612471;233;26614;-70
2022/04/17 05:42:30;;;;;;;2.35;1.45;;;4.50;74.40;;;;;;612518;235;26556;-70
2022/04/17 05:44:57;;;;;;;1.52;1.50;;;4.60;74.10;;;;;;612483;233;26896;-70
2022/04/17 05:47:25;;;;;;;1.20;1.20;;;4.70;73.50;;;;;;612467;234;26587;-71
2022/04/17 05:49:53;;;;;;;1.35;1.25;;;4.80;72.90;;;;;;612419;233;26621;-70
2022/04/17 05:52:21;;;;;;;1.20;1.20;;;4.90;72.90;;;;;;612366;233;26642;-70
2022/04/17 05:54:48;;;;;;;1.55;1.12;;;4.90;72.90;;;;;;612305;235;26619;-71
2022/04/17 05:57:15;;;;;;;1.50;1.40;;;5.00;72.80;;;;;;612265;233;26632;-71
2022/04/17 05:59:43;;;;;;;1.37;1.27;;;5.30;72.50;;;;;;612339;233;26806;-71
2022/04/17 06:02:11;;;;;;;1.90;1.80;;;5.30;72.50;;;;;;612320;235;26832;-71
2022/04/17 06:04:38;;;;;;;1.55;1.45;;;5.70;71.00;;;;;;612350;235;26611;-71
2022/04/17 06:07:06;;;;;;;1.30;1.30;;;5.80;71.00;;;;;;612442;233;26632;-71
2022/04/17 06:09:34;;;;;;;1.20;1.20;;;5.80;71.00;;;;;;612427;233;26861;-71
2022/04/17 06:12:01;;;;;;;1.20;1.20;;;5.90;71.00;;;;;;612993;232;26612;-71
2022/04/17 06:14:28;;;;;;;1.52;1.42;;;6.00;70.70;;;;;;613844;232;26811;-71
2022/04/17 06:16:55;;;;;;;1.37;1.30;;;6.10;70.20;;;;;;613503;232;26594;-71
2022/04/17 06:19:22;;;;;;;1.00;1.00;;;6.30;68.30;;;;;;613314;232;26523;-71
2022/04/17 06:21:50;;;;;;;2.03;1.35;;;6.60;66.70;;;;;;613166;228;26561;-71
2022/04/17 06:24:18;;;;;;;1.48;1.37;;;6.70;66.10;;;;;;613014;233;26672;-71
2022/04/17 06:26:48;;;;;;;1.20;1.20;;;6.80;64.70;;;;;;612997;234;26979;-71
2022/04/17 06:29:14;;;;;;;2.12;2.03;;;6.80;64.70;;;;;;612999;233;26632;-71
2022/04/17 06:31:45;;;;;;;2.00;1.90;;;7.00;63.30;;;;;;612806;233;26786;-71
2022/04/17 06:34:09;;;;;;;1.37;1.37;;;7.20;61.20;;;;;;612506;234;26576;-71
2022/04/17 06:36:38;;;;;;;2.28;2.08;;;7.20;61.30;;;;;;612712;233;26579;-71
2022/04/17 06:39:04;;;;;;;2.20;2.10;;;7.20;61.30;;;;;;612754;233;26615;-72
2022/04/17 06:41:32;;;;;;;2.28;2.17;;;7.20;61.10;;;;;;612802;233;26555;-71
2022/04/17 06:43:59;;;;;;;2.33;2.17;;;7.20;60.40;;;;;;612805;233;26839;-71
2022/04/17 06:46:26;;;;;;;1.87;1.77;;;7.30;60.30;;;;;;612721;233;26581;-71
2022/04/17 06:48:54;;;;;;;1.90;1.80;;;7.40;60.10;;;;;;612572;233;26577;-71
2022/04/17 06:51:24;;;;;;;1.20;1.20;;;7.60;59.60;;;;;;612479;235;26612;-71
2022/04/17 06:53:49;;;;;;;1.80;1.70;;;7.60;59.60;;;;;;612303;235;26864;-71
2022/04/17 06:56:18;;;;;;;1.62;1.52;;;7.80;59.50;;;;;;612453;234;26632;-71
2022/04/17 06:58:43;;;;;;;1.83;1.73;;;7.70;59.70;;;;;;612746;235;27053;-71
2022/04/17 07:01:10;;;;;;;1.50;1.50;;;7.70;59.70;;;;;;612572;234;26624;-71
2022/04/17 07:03:37;;;;;;;1.80;1.70;;;7.80;59.60;;;;;;612461;235;26592;-72
2022/04/17 07:06:05;;;;;;;1.27;1.27;;;8.30;58.70;;;;;;612470;235;26654;-70
2022/04/17 07:08:33;;;;;;;1.15;1.12;;;8.30;58.70;;;;;;612448;233;26674;-71
2022/04/17 07:11:00;;;;;;;1.40;1.30;;;8.40;58.70;;;;;;612482;233;26580;-71
2022/04/17 07:13:27;;;;;;;1.65;1.48;;;8.50;58.40;;;;;;612396;235;26966;-71
2022/04/17 07:15:54;;;;;;;1.05;1.00;;;8.70;58.20;;;;;;612455;235;26614;-71
2022/04/17 07:18:21;;;;;;;2.65;1.50;;;8.80;59.60;;;;;;612449;233;26628;-71
2022/04/17 07:20:49;;;;;;;1.20;1.20;;;9.10;57.80;;;;;;612443;234;26618;-71
2022/04/17 07:23:18;;;;;;;0.90;0.90;;;9.20;58.20;;;;;;612755;232;26607;-71
2022/04/17 07:25:45;;;;;;;1.10;1.10;;;9.20;58.00;;;;;;613983;233;26991;-71
2022/04/17 07:28:13;;;;;;;1.02;1.02;;;9.30;61.80;;;;;;613501;233;26565;-71
2022/04/17 07:30:41;;;;;;;1.02;1.02;;;9.30;58.80;;;;;;613230;234;26579;-71
2022/04/17 07:33:08;;;;;;;1.10;1.10;;;9.30;58.60;;;;;;613008;232;26570;-70
2022/04/17 07:35:35;;;;;;;1.30;1.20;;;9.40;59.70;;;;;;612926;234;26631;-70
2022/04/17 07:38:02;;;;;;;1.10;1.10;;;9.60;65.20;;;;;;612881;233;26886;-71
2022/04/17 07:40:30;;;;;;;2.22;1.30;;;9.80;58.60;;;;;;612872;233;26633;-71
2022/04/17 07:42:58;;;;;;;2.65;1.33;;;9.80;58.70;;;;;;612643;234;26581;-70
2022/04/17 07:45:24;;;;;;;2.30;1.40;;;9.90;57.40;;;;;;612687;233;26576;-70
2022/04/17 07:47:52;;;;;;;1.77;1.30;;;9.90;57.20;;;;;;612679;235;26829;-70
2022/04/17 07:50:21;;;;;;;1.20;1.20;;;9.80;57.10;;;;;;612741;233;26575;-70
2022/04/17 07:52:48;;;;;;;1.30;1.20;;;9.90;59.40;;;;;;612661;233;26587;-71
2022/04/17 07:55:16;;;;;;;1.40;1.30;;;10.00;56.40;;;;;;612718;233;26578;-71
2022/04/17 08:00:19;;;;;;;1.30;1.20;;;10.40;58.50;;;;;;612586;233;26568;-71
2022/04/17 08:02:50;;;;;;;3.70;1.23;;;10.50;59.30;;;;;;612312;235;26643;-71
2022/04/17 08:05:13;;;;;;;1.35;1.35;;;10.70;58.50;;;;;;612133;235;26595;-71
2022/04/17 08:07:41;;;;;;;2.60;1.23;;;10.90;56.00;;;;;;612416;235;26592;-71
2022/04/17 08:10:09;;;;;;;2.25;1.67;;;10.60;55.30;;;;;;612467;233;26592;-72
2022/04/17 08:12:37;;;;;;;1.15;1.15;;;10.60;55.30;;;;;;612419;233;26624;-71
2022/04/17 08:15:04;;;;;;;1.10;1.10;;;10.70;56.20;;;;;;612482;235;26632;-71
2022/04/17 08:17:32;;;;;;;1.73;1.33;;;10.80;54.80;;;;;;612494;235;26650;-71
2022/04/17 08:19:59;;;;;;;1.80;1.20;;;10.80;54.60;;;;;;612490;235;26803;-72
2022/04/17 08:22:28;;;;;;;1.20;1.10;;;11.00;54.80;;;;;;612477;235;26624;-72
2022/04/17 08:24:56;;;;;;;1.05;1.05;;;11.20;55.70;;;;;;612434;235;26661;-72
2022/04/17 08:27:23;;;;;;;1.52;1.42;;;11.10;55.60;;;;;;612450;235;26638;-71
2022/04/17 08:29:50;;;;;;;1.62;1.00;;;11.30;54.40;;;;;;612490;235;26556;-72
2022/04/17 08:32:17;;;;;;;1.90;1.23;;;11.60;54.80;;;;;;612367;235;26841;-71
2022/04/17 08:34:44;;;;;;;1.90;1.80;;;11.80;54.20;;;;;;612577;232;26611;-71
2022/04/17 08:37:12;;;;;;;1.23;1.12;;;11.80;53.50;;;;;;614097;232;26877;-71
2022/04/17 08:39:39;;;;;;;2.00;1.90;;;11.90;57.30;;;;;;613585;234;26573;-71
2022/04/17 08:42:06;;;;;;;1.48;1.40;;;11.90;53.60;;;;;;613352;232;26785;-71
2022/04/17 08:44:33;;;;;;;1.15;1.15;;;11.80;53.60;;;;;;613203;232;26562;-71
2022/04/17 08:47:00;;;;;;;1.27;1.17;;;11.80;55.80;;;;;;613307;231;27214;-71
2022/04/17 08:49:27;;;;;;;1.20;1.10;;;11.90;56.20;;;;;;615965;232;26547;-71
2022/04/17 08:51:56;;;;;;;1.75;1.65;;;12.00;54.70;;;;;;616234;233;26782;-71
2022/04/17 08:54:23;;;;;;;1.80;1.27;;;12.00;54.70;;;;;;615928;232;26623;-71
2022/04/17 08:56:51;;;;;;;1.00;1.00;;;12.30;58.00;;;;;;615851;232;26638;-71
2022/04/17 08:59:18;;;;;;;1.92;1.75;;;12.20;57.90;;;;;;615990;232;26612;-71
2022/04/17 09:01:46;;;;;;;0.90;0.90;;;12.20;55.60;;;;;;616021;233;26636;-71
2022/04/17 09:04:13;;;;;;;1.05;1.05;;;12.20;57.10;;;;;;615900;232;26941;-71
2022/04/17 09:06:41;;;;;;;1.20;1.10;;;12.10;56.20;;;;;;615961;232;26622;-70
2022/04/17 09:09:08;;;;;;;10.35;1.90;;;12.00;56.50;;;;;;615950;232;26835;-71
2022/04/17 09:11:36;;;;;;;14.48;2.05;;;11.90;56.30;;;;;;615815;233;26802;-72
2022/04/17 09:14:03;;;;;;;13.95;1.80;;;11.90;55.30;;;;;;615576;233;26555;-72
2022/04/17 09:16:30;;;;;;;15.98;1.83;;;12.00;55.90;;;;;;615632;233;26845;-71
2022/04/17 09:18:57;;;;;;;9.25;1.35;;;11.90;54.40;;;;;;615610;233;26564;-71
2022/04/17 09:21:32;;;;;;;4.37;1.50;;;12.00;55.00;;;;;;613949;231;26799;-72
2022/04/17 09:23:57;;;;;;;8.00;1.87;;;12.20;54.50;;;;;;617215;230;26843;-73
2022/04/17 09:26:25;;;;;;;11.65;2.00;;;12.20;53.60;;;;;;613220;231;26560;-72
2022/04/17 09:28:52;;;;;;;8.10;2.47;;;12.10;54.30;;;;;;617247;231;26927;-72
2022/04/17 09:31:19;;;;;;;6.95;2.72;;;12.30;53.50;;;;;;615857;231;26546;-71
2022/04/17 09:33:49;;;;;;;6.90;3.17;;;12.40;53.40;;;;;;616534;231;27140;-71
2022/04/17 09:36:14;;;;;;;7.00;3.60;;;12.60;52.10;;;;;;614381;231;26600;-71
2022/04/17 09:38:42;;;;;;;9.27;2.90;;;12.80;52.40;;;;;;614847;231;26548;-71
2022/04/17 09:41:13;;;;;;;11.00;4.22;;;13.00;52.60;;;;;;615003;228;26533;-72
2022/04/17 09:43:38;;;;;;;6.37;3.22;;;13.20;53.00;;;;;;615959;231;26587;-70
2022/04/17 09:46:06;;;;;;;5.60;3.60;;;12.70;52.10;;;;;;616030;231;26653;-71
2022/04/17 09:48:37;;;;;;;11.55;3.55;;;12.70;52.10;;;;;;618434;227;26552;-72
2022/04/17 09:51:16;;;;;;;7.78;3.35;;;12.40;52.50;;;;;;617857;230;26563;-72
2022/04/17 09:53:43;;;;;;;3.85;3.45;;;12.40;52.50;;;;;;617335;229;26561;-72
2022/04/17 09:56:10;;;;;;;5.85;3.30;;;12.20;52.70;;;;;;618662;230;26642;-72
2022/04/17 09:58:38;;;;;;;5.45;3.20;;;12.30;53.30;;;;;;617160;230;26821;-73
2022/04/17 10:01:06;;;;;;;5.18;2.80;;;12.20;52.70;;;;;;615454;233;26567;-73
2022/04/17 10:03:32;;;;;;;6.95;3.37;;;12.30;52.60;;;;;;614461;233;26976;-73
2022/04/17 10:06:00;;;;;;;6.32;2.97;;;12.40;52.80;;;;;;613875;232;26952;-74
2022/04/17 10:08:27;;;;;;;5.30;3.05;;;12.40;52.50;;;;;;614423;231;26568;-73
2022/04/17 10:10:54;;;;;;;5.03;3.28;;;12.40;53.10;;;;;;615255;232;26819;-73
2022/04/17 10:13:22;;;;;;;5.15;3.00;;;12.40;54.10;;;;;;616938;231;26560;-74
2022/04/17 10:15:49;;;;;;;4.25;3.20;;;12.40;53.60;;;;;;615574;231;26572;-73
2022/04/17 10:18:17;;;;;;;5.37;2.75;;;12.50;53.70;;;;;;615061;230;26613;-73
2022/04/17 10:20:45;;;;;;;4.72;2.40;;;12.60;53.10;;;;;;615745;230;26608;-73
2022/04/17 10:23:13;;;;;;;2.45;2.25;;;12.90;53.70;;;;;;613063;232;26567;-73
2022/04/17 10:25:42;;;;;;;5.37;2.47;;;13.20;52.80;;;;;;614788;234;26576;-73
2022/04/17 10:28:09;;;;;;;3.75;2.65;;;13.10;52.20;;;;;;619546;231;26543;-73
2022/04/17 10:30:40;;;;;;;3.65;2.25;;;13.10;51.50;;;;;;616044;230;26625;-73
2022/04/17 10:33:25;;;;;;;2.35;2.12;;;13.00;51.40;;;;;;618697;231;26879;-73
2022/04/17 10:36:16;;;;;;;2.78;2.33;;;12.90;52.80;;;;;;610559;235;26660;-73
2022/04/17 10:38:46;;;;;;;4.55;2.78;;;12.90;52.60;;;;;;614410;234;26594;-73
2022/04/17 10:41:13;;;;;;;3.83;2.53;;;12.80;52.50;;;;;;614869;232;26552;-73
2022/04/17 10:43:57;;;;;;;3.40;2.30;;;12.80;54.40;;;;;;614565;233;26793;-73
2022/04/17 10:46:24;;;;;;;2.47;2.00;;;12.80;52.40;;;;;;619158;231;26629;-73
2022/04/17 10:48:52;;;;;;;2.22;2.03;;;12.80;52.80;;;;;;621664;230;27272;-73
2022/04/17 10:51:21;;;;;;;2.83;2.10;;;12.90;52.70;;;;;;615467;231;26561;-72
2022/04/17 10:53:49;;;;;;;2.53;1.95;;;13.00;54.30;;;;;;613880;234;26537;-73
2022/04/17 10:56:16;;;;;;;2.70;2.10;;;13.20;54.20;;;;;;615942;234;26561;-73
2022/04/17 10:58:50;;;;;;;2.45;2.05;;;13.30;52.10;;;;;;620808;229;26844;-73
2022/04/17 11:01:17;;;;;;;2.20;2.00;;;13.30;52.60;;;;;;617083;231;26771;-73
2022/04/17 11:03:52;;;;;;;2.17;1.87;;;13.50;51.80;;;;;;612247;233;26578;-73
2022/04/17 11:06:32;;;;;;;1.80;1.70;;;13.80;52.30;;;;;;615094;233;26584;-70
2022/04/17 11:09:05;;;;;;;5.50;1.90;;;14.10;51.70;;;;;;616200;233;26980;-73
2022/04/17 11:11:35;;;;;;;4.05;2.30;;;14.50;49.10;;;;;;615044;233;26567;-73
2022/04/17 11:14:08;;;;;;;8.55;2.37;;;14.50;49.00;;;;;;616859;231;26634;-73
2022/04/17 11:16:46;;;;;;;2.70;1.62;;;14.30;49.00;;;;;;612991;231;26858;-73
2022/04/17 11:19:13;;;;;;;6.25;1.95;;;14.00;48.80;;;;;;615641;233;26643;-73
2022/04/17 11:21:44;;;;;;;1.90;1.70;;;13.90;50.20;;;;;;614995;232;26620;-73
2022/04/17 11:24:11;;;;;;;1.65;1.55;;;13.90;47.70;;;;;;616985;231;26567;-73
2022/04/17 11:26:56;;;;;;;3.20;1.70;;;13.70;48.50;;;;;;615426;231;26842;-74
2022/04/17 11:29:33;;;;;;;3.70;1.70;;;13.90;51.00;;;;;;611346;234;26644;-71
2022/04/17 11:32:00;;;;;;;25.08;4.90;;;13.90;50.90;;;;;;612740;233;26780;-71
2022/04/17 11:34:40;;;;;;;102.47;19.00;;;13.90;46.50;;;;;;612610;233;26589;-72
2022/04/17 11:37:07;;;;;;;1999.90;305.55;;;13.90;46.50;;;;;;615047;234;26793;-73
2022/04/17 11:39:35;;;;;;;1999.90;351.62;;;14.20;46.40;;;;;;613186;234;26578;-69
2022/04/17 11:42:02;;;;;;;115.12;22.02;;;14.20;46.40;;;;;;614231;234;26560;-71
2022/04/17 11:44:29;;;;;;;98.47;22.02;;;14.20;44.70;;;;;;614430;234;26805;-72
2022/04/17 11:46:56;;;;;;;82.10;19.52;;;14.40;46.30;;;;;;612984;233;26643;-72
2022/04/17 11:49:24;;;;;;;89.25;19.87;;;14.40;46.40;;;;;;614397;231;26819;-70
2022/04/17 11:51:51;;;;;;;80.70;19.33;;;14.30;47.00;;;;;;616156;230;26648;-72
2022/04/17 11:54:30;;;;;;;84.60;18.52;;;14.40;46.40;;;;;;612403;234;26850;-69
2022/04/17 11:56:58;;;;;;;65.95;16.62;;;14.40;45.10;;;;;;611960;233;26686;-68
2022/04/17 11:59:26;;;;;;;44.47;12.98;;;14.40;45.60;;;;;;612196;233;26626;-65
2022/04/17 12:02:06;;;;;;;25.05;8.10;;;14.50;46.00;;;;;;612332;228;26644;-68
2022/04/17 12:04:33;;;;;;;25.08;6.55;;;14.50;45.60;;;;;;612437;233;26839;-67
2022/04/17 12:07:01;;;;;;;13.77;5.28;;;14.30;47.60;;;;;;612355;235;26632;-67
2022/04/17 12:09:29;;;;;;;26.98;8.50;;;14.40;48.00;;;;;;612664;232;26581;-67
2022/04/17 12:11:57;;;;;;;19.98;7.37;;;14.40;48.70;;;;;;614094;233;26564;-67
2022/04/17 12:14:29;;;;;;;9.57;3.50;;;14.50;48.60;;;;;;613581;233;26555;-67
2022/04/17 12:16:56;;;;;;;14.10;6.35;;;14.50;48.60;;;;;;613220;234;26583;-67
2022/04/17 12:19:25;;;;;;;20.25;7.03;;;14.40;50.00;;;;;;613279;232;26813;-67
2022/04/17 12:21:50;;;;;;;16.55;6.22;;;14.50;54.80;;;;;;613013;234;26594;-67
2022/04/17 12:24:18;;;;;;;12.13;4.95;;;14.60;50.80;;;;;;613086;233;26808;-67
2022/04/17 12:26:45;;;;;;;10.60;4.20;;;14.70;52.60;;;;;;613097;233;26634;-68
2022/04/17 12:29:12;;;;;;;8.40;3.33;;;14.80;53.60;;;;;;612838;233;26883;-68
2022/04/17 12:31:39;;;;;;;4.95;2.75;;;14.90;50.20;;;;;;612834;233;26582;-68
2022/04/17 12:34:08;;;;;;;8.73;2.70;;;15.30;48.60;;;;;;612743;233;26844;-69
2022/04/17 12:36:37;;;;;;;4.07;2.62;;;15.80;48.50;;;;;;612692;233;26603;-68
2022/04/17 12:39:02;;;;;;;3.10;2.28;;;16.50;44.80;;;;;;613120;233;26540;-68
2022/04/17 12:41:30;;;;;;;5.95;2.55;;;16.40;44.70;;;;;;613159;235;26536;-68
2022/04/17 12:43:57;;;;;;;2.37;1.77;;;16.60;43.80;;;;;;612286;234;26545;-68
2022/04/17 12:46:29;;;;;;;3.55;2.05;;;16.70;43.40;;;;;;612739;234;26820;-68
2022/04/17 12:49:02;;;;;;;3.10;2.03;;;16.80;42.10;;;;;;611798;235;26633;-69
2022/04/17 12:51:29;;;;;;;4.03;1.70;;;16.80;42.20;;;;;;612214;235;26616;-69
2022/04/17 12:53:57;;;;;;;5.60;1.90;;;16.10;42.50;;;;;;612462;235;26639;-69
2022/04/17 12:56:25;;;;;;;3.97;2.05;;;16.10;44.40;;;;;;612496;233;26625;-69
2022/04/17 12:58:52;;;;;;;3.22;1.83;;;16.10;44.30;;;;;;612547;233;26787;-69
2022/04/17 13:01:20;;;;;;;4.15;1.62;;;16.50;42.30;;;;;;612420;235;26607;-69
2022/04/17 13:03:47;;;;;;;3.47;1.60;;;16.60;42.30;;;;;;612227;235;26642;-69
2022/04/17 13:06:22;;;;;;;2.67;1.73;;;17.10;43.10;;;;;;612514;233;26629;-69
2022/04/17 13:09:01;;;;;;;6.85;1.95;;;17.40;42.90;;;;;;612483;233;26928;-67
2022/04/17 13:11:30;;;;;;;2.10;1.50;;;17.40;42.80;;;;;;612575;235;26575;-68
2022/04/17 13:13:58;;;;;;;4.20;2.17;;;18.10;40.80;;;;;;612457;235;26677;-68
2022/04/17 13:16:26;;;;;;;3.78;1.80;;;18.60;42.00;;;;;;612392;235;26672;-69